Time;durP1;ratioP1;P1;durP2;ratioP2;P2;SDS_P1;SDS_P2;PMS_P1;PMS_P2;Temp;Humidity;BMP_temperature;BMP_pressure;BME280_temperature;BME280_humidity;BME280_pressure;Samples;Min_cycle;Max_cycle;Signal;HPM_P1;HPM_P2
2021/03/17 00:04:28;;;;;;;1.55;0.45;;;;;;;;;;10038097;29;20036;-65
2021/03/17 00:09:44;;;;;;;0.30;0.30;;;;;;;;;;10052110;29;20044;-63
2021/03/17 00:14:59;;;;;;;2.63;0.82;;;;;;;;;;10045557;29;20040;-65
2021/03/17 00:20:15;;;;;;;2.05;0.50;;;;;;;;;;10049510;29;20032;-64
2021/03/17 00:25:33;;;;;;;0.52;0.47;;;;;;;;;;10058287;29;20035;-64
2021/03/17 00:30:49;;;;;;;0.35;0.30;;;;;;;;;;10064706;28;20048;-65
2021/03/17 00:36:05;;;;;;;2.08;0.50;;;;;;;;;;10061849;29;20036;-64
2021/03/17 00:41:22;;;;;;;8.80;1.15;;;;;;;;;;10062842;29;20526;-65
2021/03/17 00:46:37;;;;;;;2.15;0.68;;;;;;;;;;10069513;29;20039;-64
2021/03/17 00:51:42;;;;;;;0.38;0.38;;;;;;;;;;10067340;28;20605;-65
2021/03/17 00:56:59;;;;;;;2.65;0.70;;;;;;;;;;10061518;29;20035;-65
2021/03/17 01:01:57;;;;;;;4.27;0.73;;;;;;;;;;10060148;29;20450;-65
2021/03/17 01:06:55;;;;;;;0.85;0.85;;;;;;;;;;10055501;29;20051;-64
2021/03/17 01:11:52;;;;;;;0.87;0.60;;;;;;;;;;10070287;28;20040;-65
2021/03/17 01:16:49;;;;;;;3.83;0.77;;;;;;;;;;10062559;28;20038;-65
2021/03/17 01:21:47;;;;;;;1.63;0.80;;;;;;;;;;10063104;29;20050;-65
2021/03/17 01:26:44;;;;;;;1.43;0.50;;;;;;;;;;10027648;28;21292;-65
2021/03/17 01:31:42;;;;;;;0.73;0.30;;;;;;;;;;10069626;29;20040;-66
2021/03/17 01:36:39;;;;;;;2.70;1.63;;;;;;;;;;10066697;28;20071;-65
2021/03/17 01:41:36;;;;;;;4.43;0.60;;;;;;;;;;10088728;29;20046;-65
2021/03/17 01:46:34;;;;;;;4.23;0.60;;;;;;;;;;10063810;29;20047;-65
2021/03/17 01:51:31;;;;;;;4.60;0.63;;;;;;;;;;10071127;29;20039;-65
2021/03/17 01:56:29;;;;;;;0.73;0.40;;;;;;;;;;10068962;28;20035;-65
2021/03/17 02:01:27;;;;;;;1.30;0.40;;;;;;;;;;10061048;28;20138;-66
2021/03/17 02:06:25;;;;;;;1.52;0.70;;;;;;;;;;10072089;28;20526;-65
2021/03/17 02:11:22;;;;;;;0.63;0.60;;;;;;;;;;10072777;28;20035;-65
2021/03/17 02:16:30;;;;;;;2.90;1.10;;;;;;;;;;10064261;28;20043;-65
2021/03/17 02:21:46;;;;;;;0.98;0.77;;;;;;;;;;10056607;29;20043;-65
2021/03/17 02:27:02;;;;;;;4.57;0.73;;;;;;;;;;10061950;29;20048;-66
2021/03/17 02:32:18;;;;;;;1.25;0.77;;;;;;;;;;10067578;28;20040;-67
2021/03/17 02:37:17;;;;;;;3.20;0.60;;;;;;;;;;10059553;28;20139;-66
2021/03/17 02:42:15;;;;;;;2.35;0.90;;;;;;;;;;10055852;29;20509;-65
2021/03/17 02:47:14;;;;;;;0.27;0.27;;;;;;;;;;10074390;29;20487;-65
2021/03/17 02:52:12;;;;;;;1.08;0.40;;;;;;;;;;10047889;29;20044;-64
2021/03/17 02:57:19;;;;;;;2.17;0.60;;;;;;;;;;10068347;28;20044;-64
2021/03/17 03:02:18;;;;;;;1.23;0.77;;;;;;;;;;10067271;28;20308;-64
2021/03/17 03:07:15;;;;;;;1.55;0.68;;;;;;;;;;10053045;29;20074;-64
2021/03/17 03:12:14;;;;;;;0.40;0.40;;;;;;;;;;10069437;29;20130;-64
2021/03/17 03:17:12;;;;;;;0.68;0.68;;;;;;;;;;10059407;28;20300;-63
2021/03/17 03:22:09;;;;;;;;;;;;;;;;;;10061663;29;20562;-64
2021/03/17 03:27:07;;;;;;;4.13;0.90;;;;;;;;;;10055936;29;19998;-64
2021/03/17 03:32:05;;;;;;;1.17;0.60;;;;;;;;;;10060359;28;20051;-64
2021/03/17 03:37:02;;;;;;;1.93;0.37;;;;;;;;;;10057778;28;20047;-63
2021/03/17 03:42:00;;;;;;;3.13;0.50;;;;;;;;;;10069571;29;20044;-64
2021/03/17 03:46:57;;;;;;;0.87;0.60;;;;;;;;;;10070936;29;20043;-65
2021/03/17 03:52:14;;;;;;;0.93;0.37;;;;;;;;;;10072106;28;20513;-65
2021/03/17 03:57:21;;;;;;;0.63;0.60;;;;;;;;;;10058641;29;20529;-64
2021/03/17 04:02:23;;;;;;;3.20;0.52;;;;;;;;;;10066157;28;20039;-64
2021/03/17 04:07:22;;;;;;;2.00;0.45;;;;;;;;;;10058652;28;20492;-65
2021/03/17 04:12:19;;;;;;;;;;;;;;;;;;10061308;29;20545;-64
2021/03/17 04:17:30;;;;;;;2.10;0.90;;;;;;;;;;10055256;29;19982;-64
2021/03/17 04:22:28;;;;;;;0.88;0.70;;;;;;;;;;10058130;29;20295;-64
2021/03/17 04:27:26;;;;;;;4.32;0.60;;;;;;;;;;10061316;28;20040;-64
2021/03/17 04:32:25;;;;;;;0.20;0.20;;;;;;;;;;10054425;28;20522;-64
2021/03/17 04:37:23;;;;;;;0.52;0.52;;;;;;;;;;10078872;29;20099;-65
2021/03/17 04:42:21;;;;;;;1.50;0.73;;;;;;;;;;10063143;28;20040;-63
2021/03/17 04:47:18;;;;;;;4.90;0.57;;;;;;;;;;10049307;28;20040;-64
2021/03/17 04:52:17;;;;;;;2.67;1.00;;;;;;;;;;10049808;28;20511;-63
2021/03/17 04:57:19;;;;;;;0.65;0.65;;;;;;;;;;10051227;28;20814;-64
2021/03/17 05:02:18;;;;;;;1.70;0.40;;;;;;;;;;10046871;29;20589;-64
2021/03/17 05:07:16;;;;;;;1.25;0.47;;;;;;;;;;10052416;29;20095;-64
2021/03/17 05:12:16;;;;;;;5.20;0.90;;;;;;;;;;10062204;28;20044;-65
2021/03/17 05:17:14;;;;;;;3.55;0.60;;;;;;;;;;10052214;28;20581;-65
2021/03/17 05:22:12;;;;;;;3.80;1.25;;;;;;;;;;10045413;29;20503;-65
2021/03/17 05:27:15;;;;;;;1.85;0.40;;;;;;;;;;10057671;29;20059;-66
2021/03/17 05:32:13;;;;;;;0.30;0.30;;;;;;;;;;10055617;28;20050;-64
2021/03/17 05:37:10;;;;;;;4.82;0.68;;;;;;;;;;10059620;28;20048;-66
2021/03/17 05:42:08;;;;;;;0.87;0.20;;;;;;;;;;10051992;29;20043;-64
2021/03/17 05:47:06;;;;;;;4.93;1.07;;;;;;;;;;10044101;29;20126;-65
2021/03/17 05:52:05;;;;;;;1.65;0.75;;;;;;;;;;10058517;28;20067;-65
2021/03/17 05:57:03;;;;;;;3.20;0.70;;;;;;;;;;10059324;28;20047;-65
2021/03/17 06:02:01;;;;;;;2.72;0.60;;;;;;;;;;10021009;28;20044;-66
2021/03/17 06:07:02;;;;;;;4.33;0.60;;;;;;;;;;10028522;29;20561;-65
2021/03/17 06:11:59;;;;;;;4.97;0.45;;;;;;;;;;10070045;28;20530;-65
2021/03/17 06:16:58;;;;;;;2.80;0.60;;;;;;;;;;10042648;29;20110;-64
2021/03/17 06:21:57;;;;;;;2.03;0.45;;;;;;;;;;10057882;28;20043;-64
2021/03/17 06:26:54;;;;;;;2.22;0.40;;;;;;;;;;10034982;29;20389;-66
2021/03/17 06:31:53;;;;;;;1.67;0.23;;;;;;;;;;10112819;23;20046;-61
2021/03/17 06:36:52;;;;;;;1.75;0.77;;;;;;;;;;10204255;28;20041;-62
2021/03/17 06:41:53;;;;;;;1.45;0.52;;;;;;;;;;10211841;28;21267;-61
2021/03/17 06:47:10;;;;;;;0.47;0.47;;;;;;;;;;10217116;28;20101;-61
2021/03/17 06:52:26;;;;;;;0.50;0.50;;;;;;;;;;10203674;28;20041;-61
2021/03/17 06:57:26;;;;;;;3.60;0.70;;;;;;;;;;10221486;28;20124;-59
2021/03/17 07:02:24;;;;;;;2.70;0.80;;;;;;;;;;10226552;28;20038;-60
2021/03/17 07:07:21;;;;;;;1.60;0.83;;;;;;;;;;10227578;28;20034;-61
2021/03/17 07:12:19;;;;;;;2.03;0.73;;;;;;;;;;10230829;28;20034;-61
2021/03/17 07:17:32;;;;;;;6.30;0.80;;;;;;;;;;10220466;28;20100;-63
2021/03/17 07:22:30;;;;;;;2.05;0.85;;;;;;;;;;10228253;28;20401;-63
2021/03/17 07:27:28;;;;;;;2.47;0.80;;;;;;;;;;10227249;28;20042;-63
2021/03/17 07:32:26;;;;;;;1.73;0.73;;;;;;;;;;10223731;28;20050;-62
2021/03/17 07:37:26;;;;;;;1.40;0.50;;;;;;;;;;10226076;28;20049;-63
2021/03/17 07:42:24;;;;;;;4.07;0.77;;;;;;;;;;10231456;28;20857;-62
2021/03/17 07:47:22;;;;;;;2.20;0.70;;;;;;;;;;10223016;28;20400;-63
2021/03/17 07:52:21;;;;;;;5.40;1.37;;;;;;;;;;10224152;28;20038;-63
2021/03/17 07:57:20;;;;;;;2.17;0.57;;;;;;;;;;10211185;28;20478;-63
2021/03/17 08:02:19;;;;;;;2.47;0.90;;;;;;;;;;10208985;28;20040;-63
2021/03/17 08:07:18;;;;;;;5.00;0.80;;;;;;;;;;10221945;28;20074;-61
2021/03/17 08:12:15;;;;;;;;;;;;;;;;;;10230279;28;20455;-62
2021/03/17 08:17:13;;;;;;;7.15;1.30;;;;;;;;;;10228518;28;19922;-63
2021/03/17 08:22:10;;;;;;;1.70;0.40;;;;;;;;;;10180742;28;20037;-62
2021/03/17 08:27:07;;;;;;;4.90;0.90;;;;;;;;;;10218596;28;20045;-62
2021/03/17 08:32:05;;;;;;;0.43;0.20;;;;;;;;;;10224201;28;20508;-62
2021/03/17 08:37:04;;;;;;;3.55;0.93;;;;;;;;;;10211910;28;20025;-62
2021/03/17 08:42:02;;;;;;;7.57;0.93;;;;;;;;;;10221517;28;20046;-62
2021/03/17 08:47:11;;;;;;;4.13;1.00;;;;;;;;;;10221725;28;20054;-63
2021/03/17 08:52:13;;;;;;;1.20;0.70;;;;;;;;;;10207106;28;20450;-63
2021/03/17 08:57:14;;;;;;;7.47;1.20;;;;;;;;;;10221592;28;20068;-63
2021/03/17 09:02:17;;;;;;;3.45;0.57;;;;;;;;;;10227893;28;20127;-62
2021/03/17 09:07:16;;;;;;;1.95;0.80;;;;;;;;;;10231461;28;20042;-62
2021/03/17 09:12:13;;;;;;;7.10;0.65;;;;;;;;;;10216606;28;20172;-63
2021/03/17 09:17:18;;;;;;;1.17;0.73;;;;;;;;;;10235218;28;20117;-62
2021/03/17 09:22:31;;;;;;;0.52;0.52;;;;;;;;;;10195527;28;20454;-62
2021/03/17 09:27:29;;;;;;;1.63;0.32;;;;;;;;;;10214112;28;20027;-63
2021/03/17 09:32:26;;;;;;;2.33;0.70;;;;;;;;;;10222768;28;20409;-64
2021/03/17 09:37:24;;;;;;;0.50;0.30;;;;;;;;;;10212163;28;20390;-64
2021/03/17 09:42:22;;;;;;;2.88;0.77;;;;;;;;;;10217278;28;20019;-64
2021/03/17 09:47:24;;;;;;;0.30;0.30;;;;;;;;;;10197442;28;20041;-64
2021/03/17 09:52:23;;;;;;;1.20;0.50;;;;;;;;;;10203159;28;20038;-62
2021/03/17 09:57:22;;;;;;;0.80;0.70;;;;;;;;;;10205972;28;20022;-63
2021/03/17 10:02:21;;;;;;;1.67;0.43;;;;;;;;;;10215935;28;20050;-64
2021/03/17 10:07:21;;;;;;;5.80;0.70;;;;;;;;;;10210428;28;20405;-64
2021/03/17 10:12:20;;;;;;;2.08;0.40;;;;;;;;;;10201683;28;20037;-64
2021/03/17 10:17:18;;;;;;;0.45;0.20;;;;;;;;;;10190101;28;20550;-65
2021/03/17 10:22:16;;;;;;;4.63;0.82;;;;;;;;;;10189842;28;20145;-66
2021/03/17 10:27:16;;;;;;;4.93;0.50;;;;;;;;;;10207652;28;20430;-63
2021/03/17 10:32:15;;;;;;;0.52;0.30;;;;;;;;;;10190276;28;20043;-64
2021/03/17 10:37:15;;;;;;;2.58;1.02;;;;;;;;;;10206251;28;20053;-63
2021/03/17 10:42:22;;;;;;;2.08;0.47;;;;;;;;;;10194277;28;20034;-64
2021/03/17 10:47:24;;;;;;;1.00;0.43;;;;;;;;;;10203530;28;20064;-63
2021/03/17 10:52:31;;;;;;;5.43;0.68;;;;;;;;;;10212255;28;20038;-64
2021/03/17 10:57:29;;;;;;;0.85;0.45;;;;;;;;;;10193830;28;20088;-64
2021/03/17 11:02:28;;;;;;;2.57;0.73;;;;;;;;;;10221018;28;20039;-65
2021/03/17 11:07:25;;;;;;;1.27;0.28;;;;;;;;;;10229785;28;20435;-64
2021/03/17 11:12:28;;;;;;;3.87;0.40;;;;;;;;;;10227156;28;20263;-64
2021/03/17 11:17:25;;;;;;;0.90;0.50;;;;;;;;;;10222581;28;20496;-64
2021/03/17 11:22:32;;;;;;;5.40;0.60;;;;;;;;;;10227718;28;20033;-63
2021/03/17 11:27:29;;;;;;;1.95;0.35;;;;;;;;;;10205610;28;20034;-62
2021/03/17 11:32:29;;;;;;;12.87;1.43;;;;;;;;;;10231522;28;20092;-63
2021/03/17 11:37:27;;;;;;;4.15;1.10;;;;;;;;;;10190700;28;20465;-65
2021/03/17 11:42:25;;;;;;;4.10;0.65;;;;;;;;;;10202611;28;20050;-65
2021/03/17 11:47:22;;;;;;;0.20;0.20;;;;;;;;;;10195176;28;20043;-65
2021/03/17 11:52:20;;;;;;;1.87;0.40;;;;;;;;;;10191265;28;20085;-63
2021/03/17 11:57:17;;;;;;;1.93;0.40;;;;;;;;;;10198918;28;20049;-64
2021/03/17 12:02:15;;;;;;;2.27;0.13;;;;;;;;;;10210074;28;20026;-65
2021/03/17 12:07:12;;;;;;;8.97;1.30;;;;;;;;;;10198442;28;20080;-64
2021/03/17 12:12:10;;;;;;;0.20;0.20;;;;;;;;;;10191473;28;20027;-63
2021/03/17 12:17:07;;;;;;;0.67;0.40;;;;;;;;;;10220549;28;20133;-64
2021/03/17 12:22:05;;;;;;;2.33;1.30;;;;;;;;;;10207857;28;20452;-64
2021/03/17 12:27:02;;;;;;;2.37;0.60;;;;;;;;;;10210076;28;20088;-64
2021/03/17 12:31:59;;;;;;;2.33;0.47;;;;;;;;;;10220442;23;20159;-66
2021/03/17 12:36:57;;;;;;;1.33;0.90;;;;;;;;;;10253306;28;20041;-65
2021/03/17 12:41:54;;;;;;;5.70;0.60;;;;;;;;;;10277830;28;20037;-66
2021/03/17 12:46:52;;;;;;;0.50;0.50;;;;;;;;;;10257668;28;20038;-65
2021/03/17 12:51:49;;;;;;;3.93;0.87;;;;;;;;;;10266279;28;20038;-66
2021/03/17 12:56:46;;;;;;;1.17;0.43;;;;;;;;;;10255015;28;20046;-64
2021/03/17 13:01:44;;;;;;;6.83;1.57;;;;;;;;;;10265139;28;20033;-66
2021/03/17 13:06:41;;;;;;;5.10;1.17;;;;;;;;;;10281964;28;20029;-65
2021/03/17 13:11:39;;;;;;;0.80;0.33;;;;;;;;;;10254963;28;20227;-66
2021/03/17 13:16:40;;;;;;;0.30;0.30;;;;;;;;;;10269300;28;20034;-66
2021/03/17 13:21:37;;;;;;;4.88;0.82;;;;;;;;;;10269200;28;20054;-66
2021/03/17 13:26:34;;;;;;;4.57;1.20;;;;;;;;;;10278588;28;20038;-66
2021/03/17 13:31:32;;;;;;;4.43;1.17;;;;;;;;;;10278104;28;20108;-67
2021/03/17 13:36:30;;;;;;;1.40;0.65;;;;;;;;;;10271517;28;20026;-66
2021/03/17 13:41:27;;;;;;;3.47;0.67;;;;;;;;;;10274127;28;20032;-66
2021/03/17 13:46:25;;;;;;;2.40;0.60;;;;;;;;;;10258562;28;20045;-66
2021/03/17 13:51:23;;;;;;;4.10;1.30;;;;;;;;;;10251044;28;20132;-65
2021/03/17 13:56:20;;;;;;;2.97;1.07;;;;;;;;;;10254701;28;20415;-65
2021/03/17 14:01:18;;;;;;;5.33;1.30;;;;;;;;;;10259424;28;20292;-66
2021/03/17 14:06:15;;;;;;;7.80;1.73;;;;;;;;;;10260734;28;20037;-68
2021/03/17 14:11:13;;;;;;;0.47;0.40;;;;;;;;;;10262447;28;20042;-66
2021/03/17 14:16:10;;;;;;;2.77;0.77;;;;;;;;;;10264631;28;20608;-66
2021/03/17 14:21:08;;;;;;;2.23;0.40;;;;;;;;;;10247423;28;20117;-64
2021/03/17 14:26:05;;;;;;;3.13;1.00;;;;;;;;;;10243480;28;20390;-65
2021/03/17 14:31:03;;;;;;;2.80;0.40;;;;;;;;;;10236237;28;20416;-65
2021/03/17 14:36:00;;;;;;;0.27;0.27;;;;;;;;;;10242359;28;20129;-60
2021/03/17 14:40:57;;;;;;;3.13;1.00;;;;;;;;;;10247341;28;20279;-63
2021/03/17 14:45:55;;;;;;;4.37;1.63;;;;;;;;;;10246009;28;20136;-61
2021/03/17 14:50:52;;;;;;;1.10;0.40;;;;;;;;;;10228511;28;20279;-63
2021/03/17 14:55:49;;;;;;;1.70;0.83;;;;;;;;;;10210846;28;20095;-62
2021/03/17 15:00:47;;;;;;;2.83;0.80;;;;;;;;;;10211096;28;20057;-63
2021/03/17 15:05:46;;;;;;;2.95;1.00;;;;;;;;;;10208597;28;20049;-64
2021/03/17 15:10:43;;;;;;;;;;;;;;;;;;10234326;28;20610;-64
2021/03/17 15:15:41;;;;;;;3.85;1.48;;;;;;;;;;10235467;28;19921;-64
2021/03/17 15:20:38;;;;;;;2.03;0.63;;;;;;;;;;10231155;28;20030;-66
2021/03/17 15:25:36;;;;;;;1.73;0.73;;;;;;;;;;10252063;28;20044;-63
2021/03/17 15:30:34;;;;;;;3.03;0.73;;;;;;;;;;10237578;28;20041;-62
2021/03/17 15:35:31;;;;;;;3.03;0.57;;;;;;;;;;10242708;28;20124;-63
2021/03/17 15:40:29;;;;;;;6.10;1.60;;;;;;;;;;10247157;28;20026;-64
2021/03/17 15:45:26;;;;;;;3.80;1.80;;;;;;;;;;10258351;28;20045;-62
2021/03/17 15:50:36;;;;;;;9.77;2.57;;;;;;;;;;10239920;28;20049;-62
2021/03/17 15:55:34;;;;;;;2.70;1.35;;;;;;;;;;10255411;28;20041;-63
2021/03/17 16:00:32;;;;;;;0.35;0.35;;;;;;;;;;10235335;28;20034;-66
2021/03/17 16:05:30;;;;;;;1.15;0.93;;;;;;;;;;10224235;28;20070;-65
2021/03/17 16:10:28;;;;;;;9.13;3.03;;;;;;;;;;10230433;28;20500;-63
2021/03/17 16:15:26;;;;;;;2.53;1.27;;;;;;;;;;10218548;28;20091;-63
2021/03/17 16:20:25;;;;;;;3.80;1.95;;;;;;;;;;10249309;28;20503;-65
2021/03/17 16:25:24;;;;;;;3.38;1.92;;;;;;;;;;10219082;28;20092;-63
2021/03/17 16:30:22;;;;;;;0.83;0.80;;;;;;;;;;10256095;28;20085;-63
2021/03/17 16:35:19;;;;;;;1.13;0.67;;;;;;;;;;10270763;28;20053;-63
2021/03/17 16:40:17;;;;;;;1.50;0.90;;;;;;;;;;10226210;28;20332;-64
2021/03/17 16:45:14;;;;;;;8.73;3.83;;;;;;;;;;10243862;28;20141;-62
2021/03/17 16:50:12;;;;;;;1.30;1.07;;;;;;;;;;10268772;28;20042;-60
2021/03/17 16:55:09;;;;;;;3.10;2.37;;;;;;;;;;10256657;28;20038;-62
2021/03/17 17:00:08;;;;;;;2.03;1.30;;;;;;;;;;10251997;28;20484;-65
2021/03/17 17:05:07;;;;;;;3.38;2.10;;;;;;;;;;10248116;28;20058;-63
2021/03/17 17:10:06;;;;;;;8.55;3.28;;;;;;;;;;10236806;28;20069;-63
2021/03/17 17:15:07;;;;;;;4.00;2.20;;;;;;;;;;10258495;28;20046;-61
2021/03/17 17:20:06;;;;;;;4.88;2.08;;;;;;;;;;10236172;28;20089;-62
2021/03/17 17:25:04;;;;;;;5.20;3.00;;;;;;;;;;10237549;28;20034;-62
2021/03/17 17:30:03;;;;;;;3.75;2.83;;;;;;;;;;10247774;28;20034;-63
2021/03/17 17:35:01;;;;;;;18.45;10.63;;;;;;;;;;10265379;28;20052;-65
2021/03/17 17:39:58;;;;;;;39.73;18.37;;;;;;;;;;10252855;28;20048;-63
2021/03/17 17:44:55;;;;;;;11.37;7.80;;;;;;;;;;10247150;28;20041;-64
2021/03/17 17:49:54;;;;;;;3.90;2.33;;;;;;;;;;10238930;28;20514;-63
2021/03/17 17:54:51;;;;;;;3.13;2.78;;;;;;;;;;10230552;28;20431;-67
2021/03/17 17:59:53;;;;;;;2.50;1.83;;;;;;;;;;10270276;28;20029;-62
2021/03/17 18:04:50;;;;;;;2.17;1.97;;;;;;;;;;10250963;28;20044;-62
2021/03/17 18:09:49;;;;;;;5.30;2.27;;;;;;;;;;10241552;28;20037;-58
2021/03/17 18:14:46;;;;;;;4.88;1.10;;;;;;;;;;10241198;28;20585;-62
2021/03/17 18:19:44;;;;;;;4.33;2.20;;;;;;;;;;10242575;28;20041;-62
2021/03/17 18:24:41;;;;;;;8.27;5.47;;;;;;;;;;10242054;28;20491;-62
2021/03/17 18:29:39;;;;;;;9.67;6.50;;;;;;;;;;10219047;28;21290;-66
2021/03/17 18:34:36;;;;;;;10.83;5.67;;;;;;;;;;10217537;28;20168;-60
2021/03/17 18:39:34;;;;;;;5.43;3.97;;;;;;;;;;10214287;28;20038;-62
2021/03/17 18:44:32;;;;;;;20.33;4.17;;;;;;;;;;10235030;28;20451;-61
2021/03/17 18:49:29;;;;;;;9.00;4.95;;;;;;;;;;10232928;28;20026;-63
2021/03/17 18:54:26;;;;;;;3.97;2.33;;;;;;;;;;10193117;23;20452;-65
2021/03/17 18:59:24;;;;;;;2.47;1.73;;;;;;;;;;10201031;28;20312;-61
2021/03/17 19:04:21;;;;;;;1.37;1.27;;;;;;;;;;10212584;28;20566;-65
2021/03/17 19:09:19;;;;;;;2.93;1.73;;;;;;;;;;10191381;28;21036;-65
2021/03/17 19:14:16;;;;;;;1.10;1.00;;;;;;;;;;10193870;28;20605;-63
2021/03/17 19:19:14;;;;;;;1.60;0.97;;;;;;;;;;10203015;28;20687;-65
2021/03/17 19:24:12;;;;;;;2.75;1.23;;;;;;;;;;10196417;28;20030;-64
2021/03/17 19:29:11;;;;;;;0.73;0.73;;;;;;;;;;10206775;28;20031;-62
2021/03/17 19:34:08;;;;;;;2.40;1.15;;;;;;;;;;10211544;28;20756;-63
2021/03/17 19:39:08;;;;;;;1.35;1.08;;;;;;;;;;10202021;28;20041;-64
2021/03/17 19:44:11;;;;;;;6.65;2.05;;;;;;;;;;10214523;28;20057;-64
2021/03/17 19:49:09;;;;;;;1.47;0.90;;;;;;;;;;10203442;28;20046;-64
2021/03/17 19:54:26;;;;;;;4.07;1.17;;;;;;;;;;10177947;28;20275;-64
2021/03/17 19:59:42;;;;;;;5.00;1.98;;;;;;;;;;10176356;28;20031;-64
2021/03/17 20:04:58;;;;;;;3.58;1.58;;;;;;;;;;10189125;28;20042;-63
2021/03/17 20:09:59;;;;;;;17.83;8.07;;;;;;;;;;10193331;28;20038;-64
2021/03/17 20:14:57;;;;;;;6.57;3.90;;;;;;;;;;10180910;28;20189;-64
2021/03/17 20:19:55;;;;;;;18.08;6.95;;;;;;;;;;10201228;28;20441;-63
2021/03/17 20:24:56;;;;;;;7.28;2.08;;;;;;;;;;10212071;28;20034;-64
2021/03/17 20:29:54;;;;;;;5.88;2.95;;;;;;;;;;10181291;28;20039;-63
2021/03/17 20:34:52;;;;;;;7.85;4.85;;;;;;;;;;10170852;28;20492;-63
2021/03/17 20:39:51;;;;;;;6.00;2.92;;;;;;;;;;10185662;28;20031;-63
2021/03/17 20:45:20;;;;;;;8.73;4.32;;;;;;;;;;10193754;28;20088;-65
2021/03/17 20:50:23;;;;;;;6.63;4.07;;;;;;;;;;10188033;28;20050;-63
2021/03/17 20:55:24;;;;;;;10.93;5.57;;;;;;;;;;10176822;28;20378;-64
2021/03/17 21:00:27;;;;;;;9.00;5.45;;;;;;;;;;10188165;28;20524;-64
2021/03/17 21:05:30;;;;;;;8.20;5.25;;;;;;;;;;10202143;28;20380;-64
2021/03/17 21:10:34;;;;;;;8.15;3.90;;;;;;;;;;10205839;28;20500;-61
2021/03/17 21:15:33;;;;;;;10.30;4.47;;;;;;;;;;10205500;28;21304;-61
2021/03/17 21:20:31;;;;;;;9.38;4.15;;;;;;;;;;10195582;28;20149;-57
2021/03/17 21:25:32;;;;;;;5.78;3.50;;;;;;;;;;10202621;28;20030;-62
2021/03/17 21:30:29;;;;;;;;;;;;;;;;;;10195090;28;20092;-62
2021/03/17 21:35:50;;;;;;;7.18;4.57;;;;;;;;;;10210305;28;19917;-59
2021/03/17 21:40:51;;;;;;;7.03;3.20;;;;;;;;;;10214949;28;20030;-60
2021/03/17 21:45:49;;;;;;;15.27;7.80;;;;;;;;;;10200361;28;20822;-60
2021/03/17 21:50:48;;;;;;;10.60;5.65;;;;;;;;;;10197348;28;20453;-60
2021/03/17 21:55:45;;;;;;;6.70;2.90;;;;;;;;;;10203782;28;20045;-60
2021/03/17 22:00:42;;;;;;;8.57;4.67;;;;;;;;;;10202618;28;20035;-55
2021/03/17 22:05:40;;;;;;;6.13;2.83;;;;;;;;;;10213646;28;20515;-60
2021/03/17 22:10:38;;;;;;;9.10;4.27;;;;;;;;;;10225726;28;20065;-61
2021/03/17 22:15:36;;;;;;;3.85;1.98;;;;;;;;;;10198856;28;20656;-62
2021/03/17 22:20:35;;;;;;;6.57;2.80;;;;;;;;;;10211970;28;20031;-64
2021/03/17 22:25:33;;;;;;;2.05;1.67;;;;;;;;;;10216551;28;20508;-61
2021/03/17 22:30:31;;;;;;;6.68;3.53;;;;;;;;;;10208352;28;20038;-64
2021/03/17 22:35:28;;;;;;;10.20;4.63;;;;;;;;;;10210538;28;20335;-62
2021/03/17 22:40:26;;;;;;;5.93;3.73;;;;;;;;;;10191266;28;20117;-64
2021/03/17 22:45:24;;;;;;;8.43;3.00;;;;;;;;;;10217691;28;20042;-63
2021/03/17 22:50:23;;;;;;;16.80;6.83;;;;;;;;;;10183257;28;20046;-66
2021/03/17 22:55:22;;;;;;;13.10;4.88;;;;;;;;;;10203666;28;20046;-63
2021/03/17 23:00:30;;;;;;;8.52;5.15;;;;;;;;;;10213113;28;20026;-64
2021/03/17 23:05:29;;;;;;;8.93;4.33;;;;;;;;;;10217719;28;20475;-60
2021/03/17 23:10:27;;;;;;;10.25;5.55;;;;;;;;;;10214998;28;20351;-61
2021/03/17 23:15:25;;;;;;;10.77;5.40;;;;;;;;;;10211696;28;20049;-62
2021/03/17 23:20:23;;;;;;;4.60;1.58;;;;;;;;;;10221402;28;20026;-61
2021/03/17 23:25:23;;;;;;;6.63;4.07;;;;;;;;;;10214092;28;20045;-61
2021/03/17 23:30:26;;;;;;;4.97;2.63;;;;;;;;;;10212445;28;20038;-57
2021/03/17 23:35:28;;;;;;;20.50;7.28;;;;;;;;;;10175542;28;20030;-60
2021/03/17 23:40:33;;;;;;;3.60;2.45;;;;;;;;;;10203806;28;20030;-58
2021/03/17 23:45:32;;;;;;;2.38;1.90;;;;;;;;;;10206981;28;20038;-60
2021/03/17 23:50:39;;;;;;;8.73;3.70;;;;;;;;;;10209987;28;20042;-59
2021/03/17 23:55:37;;;;;;;6.32;3.28;;;;;;;;;;10220803;28;20034;-60
